To NAV CANADA Home Page Login to a new session Search on AWWS site Feedback and Comments Disclaimer Vers la page française équivalente Tips FAQ What's new on the site To the Forecasts and Observations / NOTAM section To "File a Flight Plan" website Publications and other links Update of the User's profile FIC Telephone Numbers My Weather Data Folder Route Weather Data Regional Weather Data Local Weather Data To the Forecasts and Observations / NOTAM section
Request Generated 07/26/2016 at 17:55:12 UTC . Weather information available at that time is displayed.

METAR/TAF

GRANDE PRAIRIE/AB    

METAR CYQU 261700Z 18004KT 160V240 25SM FEW050 FEW300 21/12 A3005 RMK
SC1CI1 SLP181 DENSITY ALT 3200FT=
METAR CYQU 261600Z 23004KT 25SM FEW050 FEW300 18/10 A3005 RMK SC1CI1
SLP182 DENSITY ALT 2900FT=
METAR CYQU 261500Z 23006KT 25SM FEW320 16/08 A3006 RMK CI1 SLP184
DENSITY ALT 2600FT=

TAF CYQU 261238Z 2613/2701 VRB03KT P6SM FEW070
BECMG 2615/2617 28008KT
BECMG 2618/2620 28012G22KT
RMK NXT FCST BY 261900Z=
Your time UTC time
Weather data provided by Environment Canada and NAV CANADA